Time;durP1;ratioP1;P1;durP2;ratioP2;P2;SDS_P1;SDS_P2;PMS_P1;PMS_P2;Temp;Humidity;BMP_temperature;BMP_pressure;BME280_temperature;BME280_humidity;BME280_pressure;Samples;Min_cycle;Max_cycle;Signal;HPM_P1;HPM_P2
2022/01/17 00:00:11;;;;;;;184.30;38.05;;;;;;;;;;4999544;28;20048;-64
2022/01/17 00:02:37;;;;;;;145.77;35.85;;;;;;;;;;5000872;28;20101;-64
2022/01/17 00:05:07;;;;;;;201.95;39.65;;;;;;;;;;4997181;28;20450;-64
2022/01/17 00:07:33;;;;;;;164.63;36.67;;;;;;;;;;5001886;28;20029;-64
2022/01/17 00:09:59;;;;;;;120.38;32.85;;;;;;;;;;5004827;28;20026;-64
2022/01/17 00:12:26;;;;;;;141.85;36.25;;;;;;;;;;4995560;28;20390;-64
2022/01/17 00:14:55;;;;;;;134.38;33.08;;;;;;;;;;5007732;28;20525;-64
2022/01/17 00:19:52;;;;;;;158.75;31.58;;;;;;;;;;5003048;28;20037;-64
2022/01/17 00:22:20;;;;;;;124.95;28.40;;;;;;;;;;4994230;28;20604;-64
2022/01/17 00:24:47;;;;;;;60.45;24.60;;;;;;;;;;4998131;28;20394;-64
2022/01/17 00:27:13;;;;;;;178.05;31.63;;;;;;;;;;4994260;28;20556;-64
2022/01/17 00:29:40;;;;;;;106.57;28.63;;;;;;;;;;5005329;28;20494;-64
2022/01/17 00:32:06;;;;;;;167.07;29.70;;;;;;;;;;5007429;28;20030;-64
2022/01/17 00:34:33;;;;;;;161.63;29.55;;;;;;;;;;5011643;28;20482;-64
2022/01/17 00:36:59;;;;;;;171.63;31.25;;;;;;;;;;4999404;28;20520;-64
2022/01/17 00:39:25;;;;;;;149.25;28.35;;;;;;;;;;5007033;28;20050;-64
2022/01/17 00:41:51;;;;;;;136.45;25.60;;;;;;;;;;5005954;28;20109;-64
2022/01/17 00:44:22;;;;;;;149.27;29.00;;;;;;;;;;5000845;28;20118;-64
2022/01/17 00:46:48;;;;;;;109.03;25.17;;;;;;;;;;4997163;28;20031;-64
2022/01/17 00:49:15;;;;;;;174.80;28.52;;;;;;;;;;5009460;28;20057;-64
2022/01/17 00:51:41;;;;;;;64.30;21.77;;;;;;;;;;5004003;28;20046;-64
2022/01/17 00:54:07;;;;;;;138.30;25.83;;;;;;;;;;5002285;28;20022;-64
2022/01/17 00:56:33;;;;;;;187.57;28.63;;;;;;;;;;5011023;28;20486;-64
2022/01/17 00:58:59;;;;;;;118.60;26.13;;;;;;;;;;4979000;28;20392;-64
2022/01/17 01:01:25;;;;;;;175.05;30.00;;;;;;;;;;4999104;28;20065;-64
2022/01/17 01:03:52;;;;;;;146.10;27.55;;;;;;;;;;4995142;28;20037;-64
2022/01/17 01:06:18;;;;;;;125.63;25.63;;;;;;;;;;5009196;28;20030;-64
2022/01/17 01:08:44;;;;;;;247.43;30.85;;;;;;;;;;4997983;28;20117;-64
2022/01/17 01:11:10;;;;;;;155.50;26.23;;;;;;;;;;5002692;28;20089;-64
2022/01/17 01:13:36;;;;;;;86.38;23.83;;;;;;;;;;4992294;28;20105;-64
2022/01/17 01:29:11;;;;;;;67.13;19.20;;;;;;;;;;4984553;28;20389;-64
2022/01/17 01:31:52;;;;;;;94.78;21.83;;;;;;;;;;5005444;28;20026;-64
2022/01/17 01:34:21;;;;;;;97.57;21.02;;;;;;;;;;5006505;28;20484;-64
2022/01/17 01:36:48;;;;;;;59.67;20.23;;;;;;;;;;4996189;28;20018;-64
2022/01/17 01:39:22;;;;;;;76.88;21.40;;;;;;;;;;4998885;28;20503;-64
2022/01/17 01:41:48;;;;;;;77.82;19.83;;;;;;;;;;5004148;28;20038;-64
2022/01/17 01:44:15;;;;;;;134.27;22.17;;;;;;;;;;5000541;28;20037;-64
2022/01/17 01:46:42;;;;;;;54.65;18.50;;;;;;;;;;5001604;28;20022;-64
2022/01/17 01:49:08;;;;;;;45.78;16.55;;;;;;;;;;5010125;28;20485;-64
2022/01/17 01:51:35;;;;;;;211.40;26.02;;;;;;;;;;5001595;28;20026;-64
2022/01/17 01:54:01;;;;;;;175.50;20.90;;;;;;;;;;5002603;28;20509;-64
2022/01/17 01:56:27;;;;;;;95.15;19.58;;;;;;;;;;5005774;28;20037;-64
2022/01/17 01:58:53;;;;;;;227.68;25.15;;;;;;;;;;5007486;28;20129;-64
2022/01/17 02:01:19;;;;;;;131.30;20.05;;;;;;;;;;4994133;28;20031;-64
2022/01/17 02:03:45;;;;;;;100.35;17.65;;;;;;;;;;5001300;28;20391;-64
2022/01/17 02:06:11;;;;;;;84.93;18.65;;;;;;;;;;4996373;28;20406;-64
2022/01/17 02:08:38;;;;;;;58.10;16.88;;;;;;;;;;5009745;28;20033;-64
2022/01/17 02:11:04;;;;;;;238.77;22.90;;;;;;;;;;4998296;28;20033;-64
2022/01/17 02:13:30;;;;;;;55.33;14.65;;;;;;;;;;5007031;28;20553;-64
2022/01/17 02:16:06;;;;;;;74.95;16.25;;;;;;;;;;4994849;28;20042;-64
2022/01/17 02:18:32;;;;;;;50.83;13.68;;;;;;;;;;4997261;28;20041;-64
2022/01/17 02:21:12;;;;;;;84.57;16.70;;;;;;;;;;4997661;28;20044;-64
2022/01/17 02:23:38;;;;;;;64.20;15.13;;;;;;;;;;5006028;28;20120;-64
2022/01/17 02:26:04;;;;;;;213.40;23.25;;;;;;;;;;4993843;28;20027;-64
2022/01/17 02:28:33;;;;;;;99.20;18.17;;;;;;;;;;5001405;28;20041;-64
2022/01/17 02:31:06;;;;;;;146.25;20.80;;;;;;;;;;5012077;28;20401;-64
2022/01/17 02:33:33;;;;;;;264.85;22.77;;;;;;;;;;4982136;28;20057;-64
2022/01/17 02:35:59;;;;;;;224.35;21.58;;;;;;;;;;4995141;28;20026;-64
2022/01/17 02:38:25;;;;;;;130.45;17.90;;;;;;;;;;4992100;28;20038;-64
2022/01/17 02:40:51;;;;;;;101.80;16.45;;;;;;;;;;5009571;28;20375;-64
2022/01/17 02:43:20;;;;;;;161.80;18.85;;;;;;;;;;5011866;28;20033;-64
2022/01/17 02:48:22;;;;;;;49.03;13.70;;;;;;;;;;4991646;28;20033;-64
2022/01/17 02:50:49;;;;;;;127.97;15.35;;;;;;;;;;4991306;28;20026;-64
2022/01/17 02:53:15;;;;;;;135.07;16.00;;;;;;;;;;4991002;28;20057;-64
2022/01/17 02:55:46;;;;;;;187.27;17.50;;;;;;;;;;4991305;28;20486;-64
2022/01/17 02:58:12;;;;;;;48.50;13.50;;;;;;;;;;4991261;28;20487;-64
2022/01/17 03:00:38;;;;;;;168.00;17.00;;;;;;;;;;4991396;28;20022;-64
2022/01/17 03:03:05;;;;;;;234.82;20.60;;;;;;;;;;4992877;28;20128;-64
2022/01/17 03:05:31;;;;;;;265.95;20.92;;;;;;;;;;4993182;28;20026;-64
2022/01/17 03:07:57;;;;;;;84.53;14.70;;;;;;;;;;4974441;28;20042;-64
2022/01/17 03:13:02;;;;;;;164.23;13.73;;;;;;;;;;5008522;28;20033;-64
2022/01/17 03:15:28;;;;;;;187.30;16.25;;;;;;;;;;4997300;28;20021;-64
2022/01/17 03:17:55;;;;;;;203.45;19.67;;;;;;;;;;5003842;28;20038;-64
2022/01/17 03:20:21;;;;;;;110.68;12.82;;;;;;;;;;4999806;28;20614;-64
2022/01/17 03:22:47;;;;;;;278.52;18.73;;;;;;;;;;4992373;28;20197;-64
2022/01/17 03:25:13;;;;;;;145.45;13.07;;;;;;;;;;5008466;28;20029;-64
2022/01/17 03:27:39;;;;;;;205.63;17.75;;;;;;;;;;4998869;28;20022;-64
2022/01/17 03:30:06;;;;;;;302.00;19.45;;;;;;;;;;5002146;28;20026;-64
2022/01/17 03:32:32;;;;;;;207.38;18.10;;;;;;;;;;5000710;28;20465;-64
2022/01/17 03:34:58;;;;;;;150.93;14.05;;;;;;;;;;5008328;28;20029;-64
2022/01/17 03:37:24;;;;;;;341.73;20.58;;;;;;;;;;4996188;28;20026;-64
2022/01/17 03:39:51;;;;;;;325.17;21.15;;;;;;;;;;5004149;28;20081;-64
2022/01/17 03:42:18;;;;;;;275.98;18.40;;;;;;;;;;5003184;28;20521;-64
2022/01/17 03:44:45;;;;;;;201.70;16.73;;;;;;;;;;4997186;28;20537;-64
2022/01/17 03:47:11;;;;;;;215.82;15.57;;;;;;;;;;5008251;28;20386;-64
2022/01/17 03:49:37;;;;;;;124.70;13.15;;;;;;;;;;4997903;28;20030;-64
2022/01/17 03:52:04;;;;;;;41.55;9.35;;;;;;;;;;5002120;28;20034;-64
2022/01/17 03:54:31;;;;;;;170.57;14.95;;;;;;;;;;5005112;28;20030;-64
2022/01/17 03:56:57;;;;;;;130.40;15.25;;;;;;;;;;4999515;28;20062;-64
2022/01/17 03:59:24;;;;;;;35.55;8.70;;;;;;;;;;5012132;28;20121;-64
2022/01/17 04:01:50;;;;;;;39.63;8.98;;;;;;;;;;5003512;28;20054;-64
2022/01/17 04:04:16;;;;;;;121.85;13.20;;;;;;;;;;5005071;28;20027;-64
2022/01/17 04:06:42;;;;;;;34.67;8.02;;;;;;;;;;5009994;28;20030;-64
2022/01/17 04:09:09;;;;;;;98.22;12.02;;;;;;;;;;4999071;28;20069;-64
2022/01/17 04:11:36;;;;;;;138.18;12.60;;;;;;;;;;5010912;28;20050;-64
2022/01/17 04:14:02;;;;;;;114.07;11.30;;;;;;;;;;5004326;28;20037;-64
2022/01/17 04:16:28;;;;;;;33.83;7.85;;;;;;;;;;5003607;28;20033;-64
2022/01/17 04:18:55;;;;;;;133.68;13.55;;;;;;;;;;5011614;28;20034;-64
2022/01/17 04:21:21;;;;;;;123.63;12.40;;;;;;;;;;4995676;28;20014;-64
2022/01/17 04:23:48;;;;;;;121.03;12.38;;;;;;;;;;5002482;28;20498;-64
2022/01/17 04:26:14;;;;;;;69.25;10.18;;;;;;;;;;5005055;28;20033;-64
2022/01/17 04:28:40;;;;;;;38.75;9.48;;;;;;;;;;5009393;28;20116;-64
2022/01/17 04:31:06;;;;;;;86.10;10.52;;;;;;;;;;4998894;28;20026;-64
2022/01/17 04:33:33;;;;;;;106.55;10.82;;;;;;;;;;5006318;28;20061;-64
2022/01/17 04:36:00;;;;;;;78.28;10.70;;;;;;;;;;5006887;28;20038;-64
2022/01/17 04:38:27;;;;;;;33.22;9.13;;;;;;;;;;5006899;28;20053;-64
2022/01/17 04:41:02;;;;;;;51.65;10.07;;;;;;;;;;4999970;28;20065;-64
2022/01/17 04:46:03;;;;;;;98.85;12.77;;;;;;;;;;5006825;28;20030;-64
2022/01/17 04:48:29;;;;;;;216.48;18.27;;;;;;;;;;4989125;28;20029;-64
2022/01/17 04:50:55;;;;;;;164.02;15.68;;;;;;;;;;4999727;28;20101;-64
2022/01/17 04:53:21;;;;;;;100.93;14.48;;;;;;;;;;5011202;28;20038;-64
2022/01/17 04:55:48;;;;;;;301.92;22.65;;;;;;;;;;5001368;28;20034;-64
2022/01/17 04:58:15;;;;;;;60.97;11.18;;;;;;;;;;5005307;28;20037;-64
2022/01/17 05:00:46;;;;;;;210.77;17.95;;;;;;;;;;5008415;28;20030;-64
2022/01/17 05:03:32;;;;;;;150.65;16.02;;;;;;;;;;4997961;28;20054;-64
2022/01/17 05:05:59;;;;;;;198.00;20.25;;;;;;;;;;5007161;28;20038;-64
2022/01/17 05:08:25;;;;;;;254.80;20.27;;;;;;;;;;5005073;28;20486;-64
2022/01/17 05:10:54;;;;;;;166.05;18.05;;;;;;;;;;5000156;28;20022;-64
2022/01/17 05:13:25;;;;;;;188.25;19.20;;;;;;;;;;5011066;28;20026;-64
2022/01/17 05:16:05;;;;;;;90.97;14.65;;;;;;;;;;5001365;28;20038;-64
2022/01/17 05:21:00;;;;;;;302.40;25.63;;;;;;;;;;5000674;28;20245;-64
2022/01/17 05:23:26;;;;;;;254.07;24.67;;;;;;;;;;4997501;28;20042;-64
2022/01/17 05:25:52;;;;;;;66.35;16.33;;;;;;;;;;5008148;28;20034;-64
2022/01/17 05:28:18;;;;;;;276.42;28.25;;;;;;;;;;5004064;28;20033;-64
2022/01/17 05:30:44;;;;;;;161.70;19.20;;;;;;;;;;5001078;28;20487;-64
2022/01/17 05:33:11;;;;;;;127.40;19.65;;;;;;;;;;5001079;28;20041;-64
2022/01/17 05:35:37;;;;;;;422.20;31.95;;;;;;;;;;5014201;28;20032;-64
2022/01/17 05:38:03;;;;;;;141.32;21.20;;;;;;;;;;4996904;28;20033;-64
2022/01/17 05:40:29;;;;;;;244.18;25.13;;;;;;;;;;5014329;28;20080;-64
2022/01/17 05:42:56;;;;;;;290.95;27.67;;;;;;;;;;5014294;28;20038;-64
2022/01/17 05:45:22;;;;;;;213.40;23.65;;;;;;;;;;5014188;28;20445;-64
2022/01/17 05:47:48;;;;;;;257.20;27.70;;;;;;;;;;5014014;28;20032;-64
2022/01/17 05:50:15;;;;;;;116.85;20.55;;;;;;;;;;5014071;28;20022;-64
2022/01/17 05:52:42;;;;;;;161.38;20.23;;;;;;;;;;5013921;28;20033;-64
2022/01/17 05:55:09;;;;;;;157.95;20.50;;;;;;;;;;5014005;28;20069;-64
2022/01/17 05:57:35;;;;;;;107.72;21.00;;;;;;;;;;5013936;28;20447;-64
2022/01/17 06:00:01;;;;;;;146.50;21.50;;;;;;;;;;5013889;28;20076;-64
2022/01/17 06:02:28;;;;;;;114.50;19.48;;;;;;;;;;5013312;28;20041;-64
2022/01/17 06:04:54;;;;;;;101.97;17.65;;;;;;;;;;5013798;28;20065;-64
2022/01/17 06:07:20;;;;;;;88.50;17.80;;;;;;;;;;5013620;28;20029;-64
2022/01/17 06:09:46;;;;;;;66.00;15.38;;;;;;;;;;5013891;28;20367;-64
2022/01/17 06:12:13;;;;;;;75.57;15.90;;;;;;;;;;5013588;28;20069;-64
2022/01/17 06:14:39;;;;;;;78.35;16.38;;;;;;;;;;5013718;28;20443;-64
2022/01/17 06:17:06;;;;;;;167.70;21.10;;;;;;;;;;5013316;28;20034;-64
2022/01/17 06:19:32;;;;;;;73.50;17.65;;;;;;;;;;4992911;28;20113;-64
2022/01/17 06:21:58;;;;;;;90.18;18.60;;;;;;;;;;4993509;28;20026;-64
2022/01/17 06:24:24;;;;;;;88.15;18.30;;;;;;;;;;4996582;28;20105;-64
2022/01/17 06:26:51;;;;;;;42.42;16.20;;;;;;;;;;4999206;28;20026;-64
2022/01/17 06:29:17;;;;;;;78.00;18.25;;;;;;;;;;4998394;28;20038;-64
2022/01/17 06:31:44;;;;;;;140.90;21.42;;;;;;;;;;4995494;28;20031;-64
2022/01/17 06:34:11;;;;;;;111.97;18.52;;;;;;;;;;4993727;28;20105;-64
2022/01/17 06:36:37;;;;;;;120.57;18.05;;;;;;;;;;4993368;28;20037;-64
2022/01/17 06:39:04;;;;;;;88.30;18.67;;;;;;;;;;4993199;28;20522;-64
2022/01/17 06:41:30;;;;;;;165.18;20.17;;;;;;;;;;5002076;28;20029;-64
2022/01/17 06:43:57;;;;;;;135.93;20.63;;;;;;;;;;5002166;28;20069;-64
2022/01/17 06:46:24;;;;;;;152.48;23.17;;;;;;;;;;4993498;28;20042;-64
2022/01/17 06:48:50;;;;;;;94.22;17.58;;;;;;;;;;4993128;28;20018;-64
2022/01/17 06:51:16;;;;;;;78.72;16.23;;;;;;;;;;4993225;28;20027;-64
2022/01/17 06:53:43;;;;;;;130.48;19.65;;;;;;;;;;4991323;28;20023;-64
2022/01/17 06:56:09;;;;;;;90.18;18.40;;;;;;;;;;4990696;28;20041;-64
2022/01/17 06:58:36;;;;;;;320.15;37.45;;;;;;;;;;4991667;28;20022;-64
2022/01/17 07:01:03;;;;;;;155.68;20.98;;;;;;;;;;4988335;28;20382;-64
2022/01/17 07:03:29;;;;;;;96.05;17.48;;;;;;;;;;4992189;28;20030;-64
2022/01/17 07:05:55;;;;;;;183.40;22.45;;;;;;;;;;4991287;28;20372;-64
2022/01/17 07:08:21;;;;;;;75.18;17.90;;;;;;;;;;4988774;28;20069;-64
2022/01/17 07:10:47;;;;;;;118.32;20.05;;;;;;;;;;4986006;28;20023;-64
2022/01/17 07:13:13;;;;;;;138.10;22.63;;;;;;;;;;4992735;28;20022;-64
2022/01/17 07:15:39;;;;;;;104.75;19.70;;;;;;;;;;4989502;28;20387;-67
2022/01/17 07:18:06;;;;;;;254.50;28.65;;;;;;;;;;4988707;28;20045;-66
2022/01/17 07:20:33;;;;;;;187.45;25.92;;;;;;;;;;4992103;28;20038;-65
2022/01/17 07:22:59;;;;;;;193.02;27.25;;;;;;;;;;4990216;28;20026;-65
2022/01/17 07:25:25;;;;;;;123.70;22.92;;;;;;;;;;4990420;28;20506;-65
2022/01/17 07:27:51;;;;;;;107.45;21.33;;;;;;;;;;4989018;28;20435;-65
2022/01/17 07:30:17;;;;;;;319.48;34.47;;;;;;;;;;4991330;28;20042;-65
2022/01/17 07:32:44;;;;;;;239.93;28.45;;;;;;;;;;4992163;28;20030;-65
2022/01/17 07:35:10;;;;;;;124.10;21.42;;;;;;;;;;4991513;28;20348;-65
2022/01/17 07:37:36;;;;;;;248.25;34.10;;;;;;;;;;4992207;28;20101;-65
2022/01/17 07:40:04;;;;;;;217.30;28.38;;;;;;;;;;4973762;28;20058;-65
2022/01/17 07:42:30;;;;;;;261.17;30.85;;;;;;;;;;4992237;28;20026;-65
2022/01/17 07:44:58;;;;;;;169.18;26.02;;;;;;;;;;4973027;28;20093;-65
2022/01/17 07:47:39;;;;;;;250.63;27.27;;;;;;;;;;4986304;28;20406;-65
2022/01/17 07:50:06;;;;;;;320.85;32.28;;;;;;;;;;4987518;28;20041;-65
2022/01/17 07:52:32;;;;;;;366.75;50.40;;;;;;;;;;4995033;28;20109;-65
2022/01/17 07:54:58;;;;;;;378.77;43.17;;;;;;;;;;4991393;28;20129;-65
2022/01/17 07:57:24;;;;;;;431.58;47.35;;;;;;;;;;4992309;28;20034;-65
2022/01/17 07:59:50;;;;;;;490.50;49.50;;;;;;;;;;4992474;28;20029;-65
2022/01/17 08:02:16;;;;;;;204.98;29.27;;;;;;;;;;4991169;28;20109;-65
2022/01/17 08:04:43;;;;;;;391.98;39.95;;;;;;;;;;4988607;28;20076;-65
2022/01/17 08:07:09;;;;;;;370.73;33.85;;;;;;;;;;4994515;28;20105;-65
2022/01/17 08:09:35;;;;;;;323.35;28.38;;;;;;;;;;4974569;28;20100;-65
2022/01/17 08:12:02;;;;;;;362.83;33.13;;;;;;;;;;4991999;28;20431;-65
2022/01/17 08:14:28;;;;;;;159.75;20.27;;;;;;;;;;4980698;28;20468;-65
2022/01/17 08:16:55;;;;;;;400.90;34.05;;;;;;;;;;4992566;28;20038;-65
2022/01/17 08:19:25;;;;;;;343.33;29.13;;;;;;;;;;4999472;28;20129;-65
2022/01/17 08:21:54;;;;;;;342.05;30.02;;;;;;;;;;4988885;28;20034;-65
2022/01/17 08:24:21;;;;;;;176.25;22.30;;;;;;;;;;4995002;28;20022;-65
2022/01/17 08:26:47;;;;;;;301.90;25.80;;;;;;;;;;4990766;28;20035;-65
2022/01/17 08:29:13;;;;;;;302.48;27.15;;;;;;;;;;4991348;28;20173;-65
2022/01/17 08:31:42;;;;;;;398.35;31.13;;;;;;;;;;4994201;28;20070;-65
2022/01/17 08:34:10;;;;;;;318.40;29.92;;;;;;;;;;4991214;28;20039;-65
2022/01/17 08:36:36;;;;;;;502.17;39.08;;;;;;;;;;5000442;28;20415;-65
2022/01/17 08:39:03;;;;;;;165.55;21.98;;;;;;;;;;5000010;28;20168;-65
2022/01/17 08:41:29;;;;;;;183.52;18.98;;;;;;;;;;4977980;28;20027;-65
2022/01/17 08:43:55;;;;;;;206.48;21.80;;;;;;;;;;5001453;28;20033;-65
2022/01/17 08:46:22;;;;;;;337.63;28.33;;;;;;;;;;4992087;28;20017;-65
2022/01/17 08:48:48;;;;;;;362.55;31.60;;;;;;;;;;5001663;28;20136;-65
2022/01/17 08:51:14;;;;;;;224.38;24.30;;;;;;;;;;4984902;28;20030;-65
2022/01/17 08:53:40;;;;;;;244.98;26.58;;;;;;;;;;5001981;28;20022;-65
2022/01/17 08:56:06;;;;;;;221.38;25.20;;;;;;;;;;5005044;28;20046;-65
2022/01/17 08:58:32;;;;;;;293.98;27.98;;;;;;;;;;5006193;28;20041;-65
2022/01/17 09:00:58;;;;;;;275.73;26.65;;;;;;;;;;5004041;28;20072;-65
2022/01/17 09:03:24;;;;;;;236.40;24.08;;;;;;;;;;5001958;28;20026;-65
2022/01/17 09:05:51;;;;;;;237.73;25.23;;;;;;;;;;4998849;28;20483;-65
2022/01/17 09:08:18;;;;;;;237.45;24.02;;;;;;;;;;4994640;28;20081;-65
2022/01/17 09:10:44;;;;;;;171.25;24.90;;;;;;;;;;5005591;28;20026;-65
2022/01/17 09:13:11;;;;;;;282.65;25.38;;;;;;;;;;4999095;28;20054;-65
2022/01/17 09:15:37;;;;;;;235.70;25.75;;;;;;;;;;4999089;28;20018;-65
2022/01/17 09:18:04;;;;;;;191.43;24.40;;;;;;;;;;5004086;28;20023;-65
2022/01/17 09:20:32;;;;;;;196.02;22.85;;;;;;;;;;5000154;28;20022;-65
2022/01/17 09:22:58;;;;;;;199.70;25.15;;;;;;;;;;4996496;28;20041;-65
2022/01/17 09:25:25;;;;;;;182.10;19.55;;;;;;;;;;4998043;28;20041;-65
2022/01/17 09:27:51;;;;;;;153.05;19.42;;;;;;;;;;5000193;28;20029;-65
2022/01/17 09:30:17;;;;;;;231.20;23.77;;;;;;;;;;4999305;28;20022;-65
2022/01/17 09:32:43;;;;;;;122.53;18.17;;;;;;;;;;4993623;28;20034;-65
2022/01/17 09:35:11;;;;;;;135.27;20.73;;;;;;;;;;5004045;28;20038;-65
2022/01/17 09:37:37;;;;;;;178.95;30.55;;;;;;;;;;4993381;28;20030;-65
2022/01/17 09:40:05;;;;;;;282.42;33.58;;;;;;;;;;4974999;28;20392;-65
2022/01/17 09:42:35;;;;;;;227.18;28.42;;;;;;;;;;4994548;28;20034;-65
2022/01/17 09:45:02;;;;;;;192.00;28.88;;;;;;;;;;5002127;28;20095;-65
2022/01/17 09:47:28;;;;;;;182.10;26.77;;;;;;;;;;4999457;28;20053;-65
2022/01/17 09:49:56;;;;;;;201.27;30.23;;;;;;;;;;5009381;28;20037;-65
2022/01/17 09:54:52;;;;;;;102.13;24.27;;;;;;;;;;4991528;28;20483;-66
2022/01/17 09:57:19;;;;;;;169.93;23.60;;;;;;;;;;4997509;28;20021;-66
2022/01/17 09:59:45;;;;;;;244.57;26.30;;;;;;;;;;5000617;28;20022;-66
2022/01/17 10:02:13;;;;;;;95.30;22.42;;;;;;;;;;5001468;28;20034;-66
2022/01/17 10:04:39;;;;;;;197.27;29.20;;;;;;;;;;5001687;28;20148;-66
2022/01/17 10:07:07;;;;;;;274.95;33.65;;;;;;;;;;5000107;28;20026;-66
2022/01/17 10:09:34;;;;;;;225.05;26.15;;;;;;;;;;5002636;28;20378;-65
2022/01/17 10:12:03;;;;;;;201.77;26.13;;;;;;;;;;4992967;28;20046;-65
2022/01/17 10:14:31;;;;;;;132.48;23.02;;;;;;;;;;4990743;28;20030;-65
2022/01/17 10:16:57;;;;;;;283.77;27.77;;;;;;;;;;4959923;28;20143;-65
2022/01/17 10:19:26;;;;;;;190.07;23.35;;;;;;;;;;4994001;28;20065;-65
2022/01/17 10:21:55;;;;;;;129.85;20.80;;;;;;;;;;4996426;28;20034;-65
2022/01/17 10:34:56;;;;;;;124.43;24.60;;;;;;;;;;4992539;28;20081;-65
2022/01/17 10:37:26;;;;;;;147.88;24.88;;;;;;;;;;4982802;28;20031;-65
2022/01/17 10:40:01;;;;;;;75.55;22.35;;;;;;;;;;4991923;28;20053;-65
2022/01/17 10:42:29;;;;;;;77.35;20.40;;;;;;;;;;5000323;28;20109;-65
2022/01/17 10:45:01;;;;;;;107.03;23.75;;;;;;;;;;4998817;28;20018;-65
2022/01/17 10:47:28;;;;;;;55.92;21.25;;;;;;;;;;5002823;28;20026;-65
2022/01/17 10:49:56;;;;;;;36.00;20.20;;;;;;;;;;5002179;28;20120;-65
2022/01/17 10:52:36;;;;;;;40.42;19.17;;;;;;;;;;4994790;28;20026;-65
2022/01/17 10:55:14;;;;;;;42.58;20.77;;;;;;;;;;4995383;28;20030;-67
2022/01/17 10:57:43;;;;;;;31.50;12.40;;;;;;;;;;4999244;28;20026;-67
2022/01/17 11:00:11;;;;;;;28.98;12.25;;;;;;;;;;4997360;28;20045;-67
2022/01/17 11:02:39;;;;;;;30.15;12.55;;;;;;;;;;4996111;28;20079;-67
2022/01/17 11:05:06;;;;;;;35.80;13.77;;;;;;;;;;4973781;28;20027;-67
2022/01/17 11:07:38;;;;;;;20.55;8.85;;;;;;;;;;4988579;28;20490;-67
2022/01/17 11:10:07;;;;;;;27.30;4.72;;;;;;;;;;4991538;28;20606;-67
2022/01/17 11:12:35;;;;;;;18.42;3.38;;;;;;;;;;4994766;28;20073;-67
2022/01/17 11:15:01;;;;;;;21.27;4.13;;;;;;;;;;4995800;28;20026;-67
2022/01/17 11:17:37;;;;;;;12.60;3.13;;;;;;;;;;4993458;28;20422;-66
2022/01/17 11:20:08;;;;;;;15.50;3.75;;;;;;;;;;4989923;28;20097;-65
2022/01/17 11:22:36;;;;;;;18.85;2.90;;;;;;;;;;4989182;28;20026;-65
2022/01/17 11:25:03;;;;;;;32.75;4.47;;;;;;;;;;4995147;28;20029;-65
2022/01/17 11:27:30;;;;;;;17.35;3.38;;;;;;;;;;4990881;28;20035;-65
2022/01/17 11:29:57;;;;;;;15.70;2.85;;;;;;;;;;4996315;28;20152;-65
2022/01/17 11:32:24;;;;;;;14.13;3.17;;;;;;;;;;5000698;28;20026;-65
2022/01/17 11:34:51;;;;;;;15.65;2.80;;;;;;;;;;4994413;28;20035;-65
2022/01/17 11:37:18;;;;;;;17.05;2.80;;;;;;;;;;4978710;28;20036;-65
2022/01/17 11:39:46;;;;;;;14.45;3.08;;;;;;;;;;4994455;28;20042;-65
2022/01/17 11:42:29;;;;;;;15.88;3.33;;;;;;;;;;4982011;28;20423;-65
2022/01/17 11:44:55;;;;;;;13.73;3.58;;;;;;;;;;4997700;28;20076;-65
2022/01/17 11:47:39;;;;;;;14.13;2.78;;;;;;;;;;5002018;28;20034;-65
2022/01/17 11:50:24;;;;;;;12.75;2.33;;;;;;;;;;4992119;28;20506;-65
2022/01/17 11:52:50;;;;;;;17.27;2.92;;;;;;;;;;5000273;28;20465;-64
2022/01/17 11:55:35;;;;;;;15.85;3.40;;;;;;;;;;4988983;28;20067;-70
2022/01/17 11:58:19;;;;;;;19.35;3.67;;;;;;;;;;4985946;28;20041;-70
2022/01/17 12:00:58;;;;;;;15.07;2.25;;;;;;;;;;4984704;28;20122;-68
2022/01/17 12:03:25;;;;;;;20.63;2.97;;;;;;;;;;4992397;28;20030;-65
2022/01/17 12:05:53;;;;;;;13.75;2.67;;;;;;;;;;4992351;28;20117;-65
2022/01/17 12:08:28;;;;;;;9.57;2.22;;;;;;;;;;4999085;28;20105;-64
2022/01/17 12:10:57;;;;;;;16.25;3.45;;;;;;;;;;4992463;28;20505;-65
2022/01/17 12:13:35;;;;;;;15.80;3.78;;;;;;;;;;4982434;28;20414;-65
2022/01/17 12:16:18;;;;;;;14.55;2.42;;;;;;;;;;4977568;28;20084;-65
2022/01/17 12:18:44;;;;;;;19.50;2.15;;;;;;;;;;4995814;28;20033;-67
2022/01/17 12:21:20;;;;;;;10.52;2.33;;;;;;;;;;5004894;28;20601;-65
2022/01/17 12:23:47;;;;;;;15.10;2.40;;;;;;;;;;5000126;28;20374;-63
2022/01/17 12:26:32;;;;;;;7.82;1.92;;;;;;;;;;5005632;28;20034;-64
2022/01/17 12:29:00;;;;;;;11.70;2.92;;;;;;;;;;5001151;28;20070;-63
2022/01/17 12:31:41;;;;;;;14.32;4.15;;;;;;;;;;4997327;28;20418;-64
2022/01/17 12:34:19;;;;;;;13.45;2.65;;;;;;;;;;4996843;28;20061;-63
2022/01/17 12:36:48;;;;;;;10.40;2.80;;;;;;;;;;4979982;28;20041;-64
2022/01/17 12:39:15;;;;;;;11.70;2.22;;;;;;;;;;4990361;28;20461;-63
2022/01/17 12:41:42;;;;;;;16.08;4.18;;;;;;;;;;5000290;28;20374;-63
2022/01/17 12:44:14;;;;;;;9.90;2.00;;;;;;;;;;4992932;28;20102;-63
2022/01/17 12:46:44;;;;;;;11.48;2.72;;;;;;;;;;4999993;28;20046;-63
2022/01/17 12:49:10;;;;;;;13.18;3.65;;;;;;;;;;5000796;28;20114;-63
2022/01/17 12:51:40;;;;;;;10.65;2.70;;;;;;;;;;5000299;28;20057;-63
2022/01/17 12:54:11;;;;;;;10.93;2.88;;;;;;;;;;4988755;28;20378;-63
2022/01/17 12:56:41;;;;;;;11.38;2.97;;;;;;;;;;4998407;28;20061;-63
2022/01/17 12:59:09;;;;;;;7.53;3.03;;;;;;;;;;5002587;28;20058;-63
2022/01/17 13:01:35;;;;;;;12.40;2.90;;;;;;;;;;4992765;28;20027;-63
2022/01/17 13:04:06;;;;;;;9.68;2.90;;;;;;;;;;4988955;28;20053;-63
2022/01/17 13:06:33;;;;;;;9.60;2.50;;;;;;;;;;4999375;28;20038;-64
2022/01/17 13:08:59;;;;;;;10.52;2.55;;;;;;;;;;4998503;28;20788;-63
2022/01/17 13:11:26;;;;;;;7.50;2.63;;;;;;;;;;5003105;28;20038;-64
2022/01/17 13:13:58;;;;;;;10.05;2.25;;;;;;;;;;5003195;28;20065;-63
2022/01/17 13:16:24;;;;;;;11.80;2.80;;;;;;;;;;4999138;28;20030;-63
2022/01/17 13:18:51;;;;;;;8.30;1.90;;;;;;;;;;5004997;28;20297;-63
2022/01/17 13:21:17;;;;;;;11.05;2.92;;;;;;;;;;4991947;28;20064;-63
2022/01/17 13:23:52;;;;;;;12.35;2.60;;;;;;;;;;5000175;28;20054;-63
2022/01/17 13:26:29;;;;;;;15.95;4.53;;;;;;;;;;4998554;28;20026;-63
2022/01/17 13:28:56;;;;;;;12.45;3.80;;;;;;;;;;5004282;28;20109;-63
2022/01/17 13:31:23;;;;;;;14.18;4.72;;;;;;;;;;5001155;28;20026;-63
2022/01/17 13:33:50;;;;;;;22.08;4.80;;;;;;;;;;4998550;28;20046;-63
2022/01/17 13:36:20;;;;;;;10.02;3.90;;;;;;;;;;5001563;28;20058;-63
2022/01/17 13:39:04;;;;;;;10.10;3.13;;;;;;;;;;4979704;28;20432;-63
2022/01/17 13:41:30;;;;;;;10.73;2.20;;;;;;;;;;4998212;28;20029;-63
2022/01/17 13:43:56;;;;;;;14.13;3.63;;;;;;;;;;4997603;28;20027;-63
2022/01/17 13:46:22;;;;;;;10.63;3.67;;;;;;;;;;4994087;28;20034;-63
2022/01/17 13:48:48;;;;;;;10.40;3.00;;;;;;;;;;5001133;28;20022;-64
2022/01/17 13:51:16;;;;;;;13.13;2.40;;;;;;;;;;4993305;28;20030;-63
2022/01/17 13:53:42;;;;;;;6.95;3.03;;;;;;;;;;5000515;28;20034;-63
2022/01/17 13:56:09;;;;;;;8.57;2.70;;;;;;;;;;4992994;28;20035;-63
2022/01/17 13:58:38;;;;;;;13.05;3.10;;;;;;;;;;5003507;28;20014;-63
2022/01/17 14:01:11;;;;;;;13.25;3.20;;;;;;;;;;4999992;28;20037;-63
2022/01/17 14:03:39;;;;;;;9.25;3.25;;;;;;;;;;4997639;28;20561;-63
2022/01/17 14:06:13;;;;;;;12.15;3.95;;;;;;;;;;5001213;28;20026;-63
2022/01/17 14:08:42;;;;;;;8.70;2.70;;;;;;;;;;4999453;28;20029;-64
2022/01/17 14:11:09;;;;;;;18.73;3.13;;;;;;;;;;4999404;28;20029;-63
2022/01/17 14:13:37;;;;;;;13.85;3.70;;;;;;;;;;4993351;28;20483;-64
2022/01/17 14:16:14;;;;;;;8.63;3.05;;;;;;;;;;5003157;28;20029;-64
2022/01/17 14:18:41;;;;;;;15.23;3.67;;;;;;;;;;4993527;28;20544;-63
2022/01/17 14:21:07;;;;;;;13.52;4.18;;;;;;;;;;5001468;28;20026;-63
2022/01/17 14:23:37;;;;;;;12.43;3.03;;;;;;;;;;5000411;28;20035;-63
2022/01/17 14:26:03;;;;;;;18.38;3.92;;;;;;;;;;4999311;28;21366;-63
2022/01/17 14:28:31;;;;;;;12.98;3.88;;;;;;;;;;4993449;28;20033;-63
2022/01/17 14:30:58;;;;;;;14.75;3.30;;;;;;;;;;5004194;28;20041;-63
2022/01/17 14:33:25;;;;;;;13.05;4.78;;;;;;;;;;4998347;28;20041;-63
2022/01/17 14:36:09;;;;;;;12.15;3.45;;;;;;;;;;4999120;28;20038;-63
2022/01/17 14:38:46;;;;;;;11.77;3.17;;;;;;;;;;5001430;28;20032;-63
2022/01/17 14:41:18;;;;;;;12.27;3.55;;;;;;;;;;5001444;28;20042;-63
2022/01/17 14:43:46;;;;;;;15.20;3.17;;;;;;;;;;4993355;28;20066;-63
2022/01/17 14:46:13;;;;;;;10.05;3.03;;;;;;;;;;4998000;28;20034;-63
2022/01/17 14:48:41;;;;;;;14.13;4.32;;;;;;;;;;4995444;28;20026;-63
2022/01/17 14:51:14;;;;;;;14.55;5.35;;;;;;;;;;4990646;28;20083;-64
2022/01/17 14:53:41;;;;;;;20.83;4.68;;;;;;;;;;4973747;28;20022;-63
2022/01/17 15:01:46;;;;;;;16.88;5.55;;;;;;;;;;4892189;29;20482;-63